createdAt,value
2022-11-03T00:02:54.087Z,32.90
2022-11-03T00:05:47.737Z,32.90
2022-11-03T00:09:11.332Z,31.80
2022-11-03T00:12:37.273Z,32.90
2022-11-03T00:15:20.699Z,31.20
2022-11-03T00:17:56.451Z,29.90
2022-11-03T00:20:56.184Z,31.40
2022-11-03T00:23:35.600Z,32.80
2022-11-03T00:26:38.409Z,33.10
2022-11-03T00:29:42.500Z,34.30
2022-11-03T00:32:40.840Z,36.70
2022-11-03T00:38:44.673Z,31.40
2022-11-03T00:41:23.325Z,31.80
2022-11-03T00:44:46.071Z,32.00
2022-11-03T00:47:24.294Z,32.80
2022-11-03T00:50:00.446Z,33.70
2022-11-03T00:52:39.284Z,35.10
2022-11-03T00:55:11.940Z,34.50
2022-11-03T00:58:10.873Z,38.00
2022-11-03T01:01:11.931Z,37.90
2022-11-03T01:04:39.012Z,40.10
2022-11-03T01:07:15.155Z,42.70
2022-11-03T01:09:52.006Z,46.70
2022-11-03T01:13:13.224Z,49.60
2022-11-03T01:15:51.752Z,50.20
2022-11-03T01:22:19.328Z,57.60
2022-11-03T01:25:21.691Z,54.00
2022-11-03T01:27:54.642Z,51.80
2022-11-03T01:34:38.059Z,58.50
2022-11-03T01:37:14.064Z,62.90
2022-11-03T01:39:47.261Z,66.10
2022-11-03T01:42:26.866Z,75.70
2022-11-03T01:45:09.643Z,72.40
2022-11-03T01:51:09.272Z,75.40
2022-11-03T01:53:47.905Z,86.90
2022-11-03T01:56:48.299Z,87.00
2022-11-03T01:59:28.468Z,78.90
2022-11-03T02:02:47.983Z,61.00
2022-11-03T02:06:11.538Z,59.80
2022-11-03T02:12:16.939Z,66.40
2022-11-03T02:14:56.028Z,67.00
2022-11-03T02:17:36.653Z,72.30
2022-11-03T02:20:32.228Z,83.40
2022-11-03T02:23:54.846Z,76.00
2022-11-03T02:26:57.225Z,77.10
2022-11-03T02:29:29.319Z,78.30
2022-11-03T02:35:40.955Z,82.20
2022-11-03T02:38:23.428Z,86.10
2022-11-03T02:41:05.777Z,78.40
2022-11-03T02:47:11.293Z,75.90
2022-11-03T02:49:51.539Z,80.60
2022-11-03T02:52:53.811Z,70.30
2022-11-03T03:02:46.127Z,68.50
2022-11-03T03:05:34.888Z,75.90
2022-11-03T03:08:40.851Z,82.70
2022-11-03T03:11:39.639Z,87.70
2022-11-03T03:14:42.463Z,65.80
2022-11-03T03:17:22.089Z,69.80
2022-11-03T03:20:14.195Z,59.40
2022-11-03T03:26:49.784Z,58.60
2022-11-03T03:29:54.564Z,62.70
2022-11-03T03:33:19.124Z,63.70
2022-11-03T03:35:55.336Z,67.00
2022-11-03T03:38:42.397Z,58.00
2022-11-03T03:41:41.934Z,58.70
2022-11-03T03:44:39.662Z,58.80
2022-11-03T03:47:16.131Z,58.20
2022-11-03T03:49:54.688Z,60.30
2022-11-03T03:52:30.809Z,60.20
2022-11-03T03:55:15.703Z,68.70
2022-11-03T03:57:49.510Z,118.10
2022-11-03T04:00:26.683Z,87.50
2022-11-03T04:03:07.557Z,81.60
2022-11-03T04:05:40.385Z,69.60
2022-11-03T04:08:16.600Z,72.20
2022-11-03T04:17:41.281Z,58.80
2022-11-03T04:20:33.973Z,66.10
2022-11-03T04:23:08.719Z,53.60
2022-11-03T04:25:49.362Z,67.90
2022-11-03T04:28:22.818Z,64.60
2022-11-03T04:31:04.708Z,69.10
2022-11-03T04:33:43.044Z,61.00
2022-11-03T04:36:20.846Z,83.40
2022-11-03T04:38:56.165Z,96.20
2022-11-03T04:41:35.525Z,55.30
2022-11-03T04:44:37.490Z,61.40
2022-11-03T04:47:14.613Z,59.10
2022-11-03T04:50:20.759Z,52.70
2022-11-03T04:53:06.480Z,84.30
2022-11-03T04:56:28.584Z,71.50
2022-11-03T05:02:16.868Z,66.80
2022-11-03T05:04:49.517Z,78.60
2022-11-03T05:07:30.609Z,119.80
2022-11-03T05:10:04.162Z,96.30
2022-11-03T05:12:38.154Z,89.90
2022-11-03T05:15:28.797Z,100.80
2022-11-03T05:18:03.122Z,87.00
2022-11-03T05:20:39.440Z,80.90
2022-11-03T05:23:13.775Z,62.30
2022-11-03T05:25:51.732Z,58.60
2022-11-03T05:28:28.520Z,56.20
2022-11-03T05:31:00.574Z,56.80
2022-11-03T05:33:35.777Z,58.80
2022-11-03T05:36:16.959Z,58.50
2022-11-03T05:38:49.355Z,57.00
2022-11-03T05:41:25.915Z,58.60
2022-11-03T05:44:03.876Z,124.30
2022-11-03T05:46:37.737Z,116.20
2022-11-03T05:49:13.324Z,107.10
2022-11-03T05:51:47.185Z,74.90
2022-11-03T05:54:24.567Z,65.50
2022-11-03T05:56:58.946Z,85.50
2022-11-03T05:59:32.423Z,98.50
2022-11-03T06:02:04.930Z,109.30
2022-11-03T06:04:40.823Z,103.60
2022-11-03T06:07:22.361Z,97.90
2022-11-03T06:09:55.119Z,82.10
2022-11-03T06:12:30.627Z,80.00
2022-11-03T06:15:06.840Z,73.70
2022-11-03T06:17:40.955Z,83.50
2022-11-03T06:20:20.744Z,71.40
2022-11-03T06:22:53.574Z,69.70
2022-11-03T06:25:31.551Z,73.10
2022-11-03T06:28:08.231Z,59.30
2022-11-03T06:30:44.879Z,61.80
2022-11-03T06:33:21.633Z,58.90
2022-11-03T06:35:56.117Z,56.60
2022-11-03T06:38:31.070Z,58.00
2022-11-03T06:41:05.542Z,57.90
2022-11-03T06:43:43.743Z,58.80
2022-11-03T06:46:20.048Z,61.70
2022-11-03T06:48:52.744Z,65.60
2022-11-03T06:51:27.808Z,93.50
2022-11-03T06:54:01.868Z,66.50
2022-11-03T06:56:38.941Z,63.90
2022-11-03T06:59:14.928Z,65.90
2022-11-03T07:01:50.177Z,74.40
2022-11-03T07:05:10.357Z,74.90
2022-11-03T07:07:44.484Z,63.30
2022-11-03T07:10:27.754Z,59.50
2022-11-03T07:13:48.344Z,52.50
2022-11-03T07:16:47.268Z,51.20
2022-11-03T07:19:27.831Z,46.90
2022-11-03T07:22:31.139Z,47.00
2022-11-03T07:25:12.885Z,48.70
2022-11-03T07:28:17.904Z,47.20
2022-11-03T07:30:53.721Z,48.50
2022-11-03T07:33:33.360Z,49.40
2022-11-03T07:43:42.272Z,48.50
2022-11-03T07:49:42.053Z,49.00
2022-11-03T07:52:41.498Z,47.20
2022-11-03T07:59:07.245Z,56.20
2022-11-03T08:01:42.025Z,73.50
2022-11-03T08:04:20.079Z,78.80
2022-11-03T08:06:52.578Z,77.00
2022-11-03T08:09:24.727Z,75.30
2022-11-03T08:11:56.630Z,75.00
2022-11-03T08:14:28.614Z,71.80
2022-11-03T08:17:00.702Z,68.50
2022-11-03T08:19:34.345Z,56.80
2022-11-03T08:22:10.289Z,53.60
2022-11-03T08:24:46.236Z,59.50
2022-11-03T08:27:21.140Z,47.80
2022-11-03T08:29:54.798Z,46.50
2022-11-03T08:32:28.861Z,45.00
2022-11-03T08:35:03.284Z,40.70
2022-11-03T08:37:35.450Z,38.50
2022-11-03T08:40:31.291Z,36.80
2022-11-03T08:43:55.103Z,35.30
2022-11-03T08:47:03.316Z,34.70
2022-11-03T08:49:35.172Z,36.00
2022-11-03T08:52:08.747Z,32.10
2022-11-03T08:54:42.870Z,33.20
2022-11-03T09:01:06.155Z,33.50
2022-11-03T09:03:48.356Z,34.10
2022-11-03T09:07:16.803Z,33.50
2022-11-03T09:10:22.253Z,28.60
2022-11-03T09:19:43.878Z,28.40
2022-11-03T09:22:23.924Z,31.10
2022-11-03T09:25:02.560Z,27.00
2022-11-03T09:27:35.466Z,24.20
2022-11-03T09:30:15.278Z,24.90
2022-11-03T09:32:49.361Z,25.50
2022-11-03T09:35:22.890Z,24.20
2022-11-03T09:37:55.582Z,26.00
2022-11-03T09:40:29.262Z,24.70
2022-11-03T09:43:01.696Z,17.90
2022-11-03T09:45:34.656Z,19.60
2022-11-03T09:48:09.831Z,20.90
2022-11-03T09:50:46.546Z,20.20
2022-11-03T09:53:19.579Z,20.80
2022-11-03T09:55:51.490Z,19.70
2022-11-03T09:58:24.041Z,19.50
2022-11-03T10:00:56.321Z,16.90
2022-11-03T10:03:30.652Z,16.80
2022-11-03T10:06:05.771Z,15.00
2022-11-03T10:08:40.259Z,15.90
2022-11-03T10:11:12.119Z,15.00
2022-11-03T10:13:49.235Z,14.90
2022-11-03T10:16:24.573Z,14.50
2022-11-03T10:18:57.197Z,12.10
2022-11-03T10:21:34.175Z,12.10
2022-11-03T10:24:11.339Z,12.50
2022-11-03T10:26:53.074Z,11.80
2022-11-03T10:29:27.319Z,12.00
2022-11-03T10:32:01.050Z,12.50
2022-11-03T10:34:41.926Z,7.70
2022-11-03T10:37:21.772Z,5.50
2022-11-03T10:39:56.899Z,5.40
2022-11-03T10:42:35.771Z,6.00
2022-11-03T10:45:20.442Z,6.30
2022-11-03T10:48:03.070Z,6.90
2022-11-03T10:50:36.404Z,6.10
2022-11-03T10:53:11.372Z,5.40
2022-11-03T10:55:46.173Z,5.20
2022-11-03T10:58:18.694Z,5.50
2022-11-03T11:00:53.862Z,6.00
2022-11-03T11:03:27.152Z,5.50
2022-11-03T11:06:00.845Z,5.10
2022-11-03T11:08:32.756Z,5.00
2022-11-03T11:11:10.312Z,4.30
2022-11-03T11:13:46.617Z,5.30
2022-11-03T11:16:51.376Z,5.20
2022-11-03T11:19:25.065Z,5.40
2022-11-03T11:22:15.963Z,5.00
2022-11-03T11:25:07.558Z,10.50
2022-11-03T11:28:03.400Z,4.70
2022-11-03T11:31:24.057Z,5.50
2022-11-03T11:34:30.647Z,9.20
2022-11-03T11:37:37.771Z,5.60
2022-11-03T11:40:27.185Z,4.80
2022-11-03T11:43:30.221Z,4.80
2022-11-03T11:46:42.525Z,5.20
2022-11-03T11:49:30.642Z,4.90
2022-11-03T11:52:05.357Z,5.30
2022-11-03T11:54:37.275Z,4.40
2022-11-03T11:57:20.603Z,4.40
2022-11-03T11:59:54.006Z,5.20
2022-11-03T12:02:31.995Z,4.50
2022-11-03T12:05:05.046Z,4.90
2022-11-03T12:07:43.718Z,5.00
2022-11-03T12:10:18.681Z,4.80
2022-11-03T12:12:52.830Z,4.50
2022-11-03T12:15:54.389Z,5.70
2022-11-03T12:18:50.268Z,4.20
2022-11-03T12:21:52.179Z,4.00
2022-11-03T12:24:39.440Z,5.40
2022-11-03T12:27:43.738Z,4.10
2022-11-03T12:30:19.075Z,4.20
2022-11-03T12:32:53.384Z,5.20
2022-11-03T12:35:26.680Z,4.30
2022-11-03T12:38:00.130Z,5.00
2022-11-03T12:40:32.491Z,3.60
2022-11-03T12:43:04.807Z,3.70
2022-11-03T12:45:37.312Z,4.20
2022-11-03T12:48:12.834Z,3.80
2022-11-03T12:50:47.021Z,3.50
2022-11-03T12:53:19.249Z,3.40
2022-11-03T12:55:58.489Z,3.20
2022-11-03T12:58:31.814Z,3.40
2022-11-03T13:01:05.618Z,3.80
2022-11-03T13:03:38.951Z,3.50
2022-11-03T13:06:16.590Z,4.30
2022-11-03T13:08:53.224Z,3.80
2022-11-03T13:11:45.358Z,3.80
2022-11-03T13:14:17.628Z,3.40
2022-11-03T13:16:49.471Z,3.00
2022-11-03T13:19:28.650Z,3.00
2022-11-03T13:22:02.158Z,3.30
2022-11-03T13:24:36.845Z,4.60
2022-11-03T13:27:13.054Z,3.70
2022-11-03T13:29:45.793Z,3.60
2022-11-03T13:32:21.865Z,3.40
2022-11-03T13:34:56.899Z,4.10
2022-11-03T13:37:30.226Z,3.70
2022-11-03T13:40:03.821Z,4.20
2022-11-03T13:42:36.629Z,4.50
2022-11-03T13:45:11.686Z,6.10
2022-11-03T13:50:41.367Z,4.60
2022-11-03T13:56:12.860Z,5.40
2022-11-03T14:01:43.844Z,5.80
2022-11-03T14:07:14.753Z,5.30
2022-11-03T14:09:48.631Z,5.90
2022-11-03T14:12:39.169Z,5.10
2022-11-03T14:15:13.433Z,6.10
2022-11-03T14:17:48.340Z,5.40
2022-11-03T14:20:23.969Z,5.80
2022-11-03T14:22:56.985Z,5.50
2022-11-03T14:25:32.907Z,6.00
2022-11-03T14:28:04.957Z,5.60
2022-11-03T14:30:37.666Z,5.90
2022-11-03T14:33:12.182Z,6.50
2022-11-03T14:35:44.611Z,6.30
2022-11-03T14:38:16.543Z,6.30
2022-11-03T14:41:06.243Z,5.90
2022-11-03T14:43:40.708Z,6.70
2022-11-03T14:46:14.385Z,8.10
2022-11-03T14:48:46.317Z,8.90
2022-11-03T14:51:20.685Z,7.80
2022-11-03T14:53:55.684Z,8.20
2022-11-03T14:56:27.833Z,7.20
2022-11-03T14:59:02.925Z,7.20
2022-11-03T15:01:37.810Z,6.40
2022-11-03T15:04:12.443Z,6.30
2022-11-03T15:06:45.186Z,7.20
2022-11-03T15:09:18.538Z,7.30
2022-11-03T15:11:51.347Z,7.40
2022-11-03T15:14:27.121Z,8.50
2022-11-03T15:17:01.316Z,8.40
2022-11-03T15:19:34.712Z,8.20
2022-11-03T15:22:08.890Z,8.40
2022-11-03T15:27:36.703Z,8.00
2022-11-03T15:30:14.950Z,7.90
2022-11-03T15:32:47.088Z,8.30
2022-11-03T15:35:21.000Z,11.10
2022-11-03T15:37:54.155Z,8.00
2022-11-03T15:40:26.300Z,8.80
2022-11-03T15:43:02.759Z,8.50
2022-11-03T15:45:36.794Z,8.70
2022-11-03T15:48:10.159Z,9.60
2022-11-03T15:50:43.786Z,8.80
2022-11-03T15:53:18.376Z,9.20
2022-11-03T15:55:52.990Z,8.70
2022-11-03T15:58:28.382Z,8.90
2022-11-03T16:01:01.359Z,9.70
2022-11-03T16:03:35.831Z,9.80
2022-11-03T16:06:08.804Z,9.30
2022-11-03T16:08:42.333Z,8.90
2022-11-03T16:11:15.487Z,9.00
2022-11-03T16:13:48.482Z,9.30
2022-11-03T16:16:22.388Z,9.00
2022-11-03T16:18:58.151Z,8.90
2022-11-03T16:21:30.105Z,8.80
2022-11-03T16:24:02.391Z,9.10
2022-11-03T16:26:35.601Z,9.30
2022-11-03T16:29:08.451Z,9.40
2022-11-03T16:31:40.876Z,9.50
2022-11-03T16:34:13.000Z,9.50
2022-11-03T16:36:46.849Z,9.70
2022-11-03T16:39:20.999Z,9.70
2022-11-03T16:41:55.152Z,9.70
2022-11-03T16:44:28.784Z,9.80
2022-11-03T16:47:00.855Z,11.80
2022-11-03T16:49:42.700Z,10.30
2022-11-03T16:52:16.632Z,10.80
2022-11-03T16:54:52.143Z,11.10
2022-11-03T16:57:24.610Z,11.80
2022-11-03T16:59:58.782Z,11.90
2022-11-03T17:02:31.378Z,11.90
2022-11-03T17:05:04.363Z,13.60
2022-11-03T17:07:38.116Z,13.90
2022-11-03T17:10:12.836Z,14.40
2022-11-03T17:12:44.694Z,15.50
2022-11-03T17:15:18.697Z,14.80
2022-11-03T17:17:51.037Z,15.70
2022-11-03T17:20:22.882Z,15.40
2022-11-03T17:22:57.089Z,15.30
2022-11-03T17:25:29.401Z,15.00
2022-11-03T17:28:09.368Z,14.90
2022-11-03T17:30:42.480Z,14.60
2022-11-03T17:33:20.482Z,14.60
2022-11-03T17:35:53.498Z,16.70
2022-11-03T17:38:26.508Z,15.50
2022-11-03T17:41:02.681Z,16.70
2022-11-03T17:43:40.558Z,17.20
2022-11-03T17:46:12.991Z,17.80
2022-11-03T17:48:47.760Z,13.60
2022-11-03T17:51:19.787Z,13.60
2022-11-03T17:53:54.672Z,11.90
2022-11-03T17:56:32.406Z,13.30
2022-11-03T17:59:07.551Z,13.50
2022-11-03T18:01:41.776Z,12.80
2022-11-03T18:04:16.953Z,12.10
2022-11-03T18:06:49.433Z,12.60
2022-11-03T18:09:23.841Z,12.70
2022-11-03T18:12:15.334Z,12.70
2022-11-03T18:14:47.998Z,13.90
2022-11-03T18:17:23.689Z,13.90
2022-11-03T18:19:57.961Z,13.80
2022-11-03T18:22:32.682Z,13.80
2022-11-03T18:25:10.346Z,12.60
2022-11-03T18:27:45.727Z,12.50
2022-11-03T18:30:18.692Z,12.20
2022-11-03T18:32:54.640Z,12.70
2022-11-03T18:35:31.448Z,12.70
2022-11-03T18:38:10.439Z,12.90
2022-11-03T18:40:45.686Z,13.10
2022-11-03T18:43:21.444Z,13.70
2022-11-03T18:45:54.702Z,13.80
2022-11-03T18:48:27.278Z,14.20
2022-11-03T18:51:00.640Z,14.30
2022-11-03T18:53:34.170Z,14.50
2022-11-03T18:56:11.952Z,15.70
2022-11-03T18:58:45.631Z,16.70
2022-11-03T19:01:26.182Z,17.90
2022-11-03T19:04:04.079Z,18.60
2022-11-03T19:06:37.414Z,20.40
2022-11-03T19:09:09.373Z,24.10
2022-11-03T19:11:41.557Z,19.40
2022-11-03T19:14:20.491Z,19.10
2022-11-03T19:19:52.855Z,18.20
2022-11-03T19:22:27.146Z,17.80
2022-11-03T19:24:59.722Z,19.50
2022-11-03T19:27:35.216Z,18.20
2022-11-03T19:30:12.573Z,17.70
2022-11-03T19:32:47.690Z,17.90
2022-11-03T19:35:31.008Z,19.50
2022-11-03T19:38:06.269Z,19.40
2022-11-03T19:40:39.058Z,21.20
2022-11-03T19:43:14.005Z,20.20
2022-11-03T19:45:51.457Z,20.00
2022-11-03T19:48:28.904Z,20.90
2022-11-03T19:51:02.403Z,19.00
2022-11-03T19:53:37.671Z,19.40
2022-11-03T19:56:13.629Z,19.50
2022-11-03T19:58:46.296Z,20.20
2022-11-03T20:01:21.022Z,21.20
2022-11-03T20:03:55.522Z,20.60
2022-11-03T20:06:28.190Z,20.90
2022-11-03T20:09:00.169Z,21.20
2022-11-03T20:11:37.792Z,21.10
2022-11-03T20:14:13.335Z,20.30
2022-11-03T20:16:47.598Z,21.00
2022-11-03T20:19:20.650Z,21.00
2022-11-03T20:21:53.057Z,20.60
2022-11-03T20:24:25.900Z,23.40
2022-11-03T20:26:57.836Z,20.00
2022-11-03T20:29:34.894Z,17.70
2022-11-03T20:32:10.596Z,16.80
2022-11-03T20:34:46.738Z,16.50
2022-11-03T20:37:21.261Z,16.20
2022-11-03T20:39:53.742Z,18.90
2022-11-03T20:42:29.220Z,16.70
2022-11-03T20:45:06.364Z,16.40
2022-11-03T20:47:39.272Z,15.70
2022-11-03T20:50:14.932Z,15.80
2022-11-03T20:52:48.476Z,16.10
2022-11-03T20:55:23.822Z,18.10
2022-11-03T20:57:58.597Z,17.80
2022-11-03T21:00:34.052Z,17.80
2022-11-03T21:03:44.980Z,18.20
2022-11-03T21:06:11.740Z,17.80
2022-11-03T21:08:46.597Z,17.90
2022-11-03T21:11:27.501Z,17.90
2022-11-03T21:14:01.413Z,18.40
2022-11-03T21:16:55.877Z,17.80
2022-11-03T21:19:59.382Z,17.80
2022-11-03T21:22:53.647Z,18.00
2022-11-03T21:25:27.853Z,17.90
2022-11-03T21:27:59.799Z,17.90
2022-11-03T21:30:34.765Z,18.50
2022-11-03T21:33:08.544Z,19.90
2022-11-03T21:35:44.008Z,19.70
2022-11-03T21:38:18.674Z,19.50
2022-11-03T21:41:13.146Z,20.30
2022-11-03T21:44:04.277Z,19.20
2022-11-03T21:46:38.831Z,20.20
2022-11-03T21:49:31.003Z,18.40
2022-11-03T21:52:03.796Z,16.90
2022-11-03T21:54:38.460Z,18.00
2022-11-03T21:57:14.769Z,18.20
2022-11-03T21:59:47.184Z,19.40
2022-11-03T22:02:22.767Z,19.10
2022-11-03T22:04:56.347Z,18.50
2022-11-03T22:07:29.074Z,18.10
2022-11-03T22:10:03.176Z,17.00
2022-11-03T22:12:36.369Z,17.80
2022-11-03T22:15:31.083Z,18.80
2022-11-03T22:18:08.218Z,17.80
2022-11-03T22:21:01.747Z,18.40
2022-11-03T22:23:55.214Z,18.50
2022-11-03T22:26:50.419Z,18.00
2022-11-03T22:29:49.462Z,16.80
2022-11-03T22:32:23.676Z,22.40
2022-11-03T22:35:13.594Z,28.30
2022-11-03T22:37:47.085Z,20.70
2022-11-03T22:40:38.284Z,19.50
2022-11-03T22:43:31.398Z,17.80
2022-11-03T22:46:04.916Z,20.00
2022-11-03T22:48:37.511Z,19.70
2022-11-03T22:51:13.397Z,20.60
2022-11-03T22:54:04.644Z,20.30
2022-11-03T22:56:36.821Z,19.10
2022-11-03T22:59:09.553Z,18.60
2022-11-03T23:01:44.592Z,19.20
2022-11-03T23:04:18.129Z,19.10
2022-11-03T23:06:50.311Z,19.60
2022-11-03T23:09:23.168Z,19.80
2022-11-03T23:11:55.799Z,20.40
2022-11-03T23:14:50.311Z,18.00
2022-11-03T23:17:45.395Z,17.40
2022-11-03T23:20:37.596Z,17.00
2022-11-03T23:23:33.725Z,16.50
2022-11-03T23:26:06.348Z,18.00
2022-11-03T23:28:39.067Z,18.90
2022-11-03T23:31:13.517Z,17.70
2022-11-03T23:33:46.602Z,17.70
2022-11-03T23:36:21.385Z,17.00
2022-11-03T23:38:55.585Z,16.50
2022-11-03T23:41:28.785Z,16.30
2022-11-03T23:44:02.583Z,17.30
2022-11-03T23:46:53.261Z,16.80
2022-11-03T23:49:25.282Z,17.40
2022-11-03T23:51:57.818Z,17.60
2022-11-03T23:54:32.029Z,18.60
2022-11-03T23:57:23.266Z,17.80
2022-11-03T23:59:55.337Z,18.90
